Time;durP1;ratioP1;P1;durP2;ratioP2;P2;SDS_P1;SDS_P2;PMS_P1;PMS_P2;Temp;Humidity;BMP_temperature;BMP_pressure;BME280_temperature;BME280_humidity;BME280_pressure;Samples;Min_cycle;Max_cycle;Signal;HPM_P1;HPM_P2
2022/02/18 00:00:48;;;;;;;;;;;8.90;99.90;;;7.07;99.89;100077.09;5050118;28;20402;-84
2022/02/18 00:03:16;;;;;;;;;;;8.90;99.90;;;7.03;100.00;100076.59;5049975;28;19964;-84
2022/02/18 00:05:44;;;;;;;;;;;8.90;99.90;;;7.01;99.68;100081.31;5051783;28;19925;-84
2022/02/18 00:08:11;;;;;;;;;;;8.90;99.90;;;6.98;99.99;100070.84;5051218;28;19936;-84
2022/02/18 00:10:39;;;;;;;;;;;8.90;99.90;;;6.93;100.00;100072.38;5067937;28;19929;-84
2022/02/18 00:13:07;;;;;;;;;;;8.90;99.90;;;6.91;100.00;100072.56;5049881;28;19955;-84
2022/02/18 00:15:34;;;;;;;;;;;8.80;99.90;;;6.91;100.00;100069.88;5033030;28;20339;-84
2022/02/18 00:18:02;;;;;;;;;;;8.80;99.90;;;6.95;100.00;100063.09;5034382;28;19928;-84
2022/02/18 00:20:30;;;;;;;;;;;8.80;99.90;;;6.93;100.00;100065.13;5050629;28;19964;-84
2022/02/18 00:22:57;;;;;;;;;;;8.80;99.90;;;6.93;100.00;100065.13;5058049;28;20016;-84
2022/02/18 00:25:24;;;;;;;;;;;8.80;99.90;;;6.84;100.00;100069.69;5051336;28;19998;-84
2022/02/18 00:27:51;;;;;;;;;;;8.90;99.90;;;6.83;100.00;100067.16;5051146;28;19935;-84
2022/02/18 00:30:20;;;;;;;;;;;8.80;99.90;;;6.83;100.00;100069.84;5059266;28;20372;-84
2022/02/18 00:32:47;;;;;;;;;;;8.80;99.90;;;6.86;100.00;100069.53;5049598;28;20055;-84
2022/02/18 00:35:19;;;;;;;;;;;8.80;99.90;;;6.88;100.00;100075.59;5031879;28;20464;-84
2022/02/18 00:37:47;;;;;;;;;;;8.80;99.90;;;6.84;100.00;100076.97;5061911;28;19932;-84
2022/02/18 00:40:14;;;;;;;;;;;8.70;99.90;;;6.79;100.00;100065.81;5068203;28;20399;-84
2022/02/18 00:42:42;;;;;;;;;;;8.70;99.90;;;6.72;100.00;100075.59;5051332;28;19934;-84
2022/02/18 00:45:10;;;;;;;;;;;8.70;99.90;;;6.79;100.00;100071.22;5055973;28;19928;-84
2022/02/18 00:47:38;;;;;;;;;;;8.70;99.90;;;6.84;100.00;100068.84;5034146;28;19933;-84
2022/02/18 00:50:06;;;;;;;;;;;8.70;99.90;;;6.78;100.00;100081.19;5069599;28;19932;-84
2022/02/18 00:52:33;;;;;;;;;;;8.70;99.90;;;6.79;100.00;100073.91;5037487;28;20016;-84
2022/02/18 00:55:00;;;;;;;;;;;8.70;99.90;;;6.81;100.00;100077.28;5048910;28;19934;-84
2022/02/18 00:57:29;;;;;;;;;;;8.70;99.90;;;6.84;100.00;100068.84;5048909;28;19929;-84
2022/02/18 00:59:56;;;;;;;;;;;8.70;99.90;;;6.83;100.00;100080.66;5045271;28;19972;-84
2022/02/18 01:02:23;;;;;;;;;;;8.70;99.90;;;6.88;100.00;100078.31;5046719;28;19975;-84
2022/02/18 01:04:52;;;;;;;;;;;8.70;99.90;;;6.82;100.00;100068.19;5046934;28;19928;-84
2022/02/18 01:07:19;;;;;;;;;;;8.70;99.90;;;6.79;100.00;100060.41;5062989;28;19924;-84
2022/02/18 01:09:46;;;;;;;;;;;8.70;99.90;;;6.81;100.00;100050.25;5064242;28;20019;-84
2022/02/18 01:12:13;;;;;;;;;;;8.80;99.90;;;6.86;100.00;100047.88;5031004;28;19925;-84
2022/02/18 01:14:42;;;;;;;;;;;8.80;99.90;;;6.90;100.00;100040.28;5063009;28;19929;-84
2022/02/18 01:17:09;;;;;;;;;;;8.80;99.90;;;6.91;100.00;100042.81;5066904;28;19925;-84
2022/02/18 01:19:36;;;;;;;;;;;8.80;99.90;;;6.86;100.00;100037.06;5052923;28;19975;-84
2022/02/18 01:22:05;;;;;;;;;;;8.80;99.90;;;6.96;100.00;100036.88;5067666;28;19924;-84
2022/02/18 01:24:32;;;;;;;;;;;8.80;99.90;;;6.83;100.00;100032.00;5072000;28;19971;-84
2022/02/18 01:26:59;;;;;;;;;;;8.80;99.90;;;6.90;100.00;100027.59;5040156;28;19925;-84
2022/02/18 01:29:26;;;;;;;;;;;8.80;99.90;;;6.99;100.00;100036.53;5038417;28;19993;-84
2022/02/18 01:31:53;;;;;;;;;;;8.90;99.90;;;7.04;100.00;100028.72;5054530;28;20027;-84
2022/02/18 01:34:28;;;;;;;;;;;8.80;99.90;;;7.05;100.00;100020.44;5039696;28;19948;-84
2022/02/18 01:36:56;;;;;;;;;;;8.90;99.90;;;7.10;100.00;100017.22;5056677;28;19924;-84
2022/02/18 01:39:24;;;;;;;;;;;8.90;99.90;;;7.08;100.00;100008.41;5054273;28;19929;-84
2022/02/18 01:41:51;;;;;;;;;;;8.90;99.90;;;7.12;100.00;99998.94;5039208;28;19929;-84
2022/02/18 01:44:32;;;;;;;;;;;8.90;99.90;;;7.03;100.00;100000.81;5039467;28;19928;-84
2022/02/18 01:46:59;;;;;;;;;;;8.90;99.90;;;7.01;100.00;100002.88;5039683;28;20509;-84
2022/02/18 01:49:27;;;;;;;;;;;8.90;99.90;;;6.98;100.00;100003.19;5041038;28;20032;-84
2022/02/18 01:51:55;;;;;;;;;;;8.90;99.90;;;6.91;100.00;100002.25;5056124;28;19935;-84
2022/02/18 01:54:22;;;;;;;;;;;8.90;99.90;;;6.96;100.00;100004.41;5038264;28;20040;-84
2022/02/18 01:56:51;;;;;;;;;;;8.90;99.90;;;7.03;100.00;100000.00;5044271;28;19956;-84
2022/02/18 01:59:18;;;;;;;;;;;8.90;99.90;;;7.05;100.00;99998.78;5066491;28;19956;-84
2022/02/18 02:01:45;;;;;;;;;;;8.90;99.90;;;7.12;100.00;100000.78;5070753;28;20038;-84
2022/02/18 02:04:12;;;;;;;;;;;8.90;99.90;;;7.04;100.00;100002.53;5051180;28;20606;-84
2022/02/18 02:06:40;;;;;;;;;;;8.90;99.90;;;7.07;100.00;99998.63;5036109;28;20019;-84
2022/02/18 02:09:07;;;;;;;;;;;8.90;99.90;;;7.08;100.00;99999.47;5034240;28;19932;-84
2022/02/18 02:11:35;;;;;;;;;;;8.90;99.90;;;7.00;100.00;100001.16;5035031;28;19932;-84
2022/02/18 02:14:07;;;;;;;;;;;8.90;99.90;;;7.01;100.00;99997.47;5070502;28;20011;-84
2022/02/18 02:16:36;;;;;;;;;;;8.90;99.90;;;7.07;100.00;99989.66;5053494;28;19935;-83
2022/02/18 02:19:03;;;;;;;;;;;8.90;99.90;;;6.98;100.00;99996.97;5034430;28;20285;-84
2022/02/18 02:21:31;;;;;;;;;;;8.90;99.90;;;7.00;100.00;99994.91;5034607;28;20502;-84
2022/02/18 02:24:00;;;;;;;;;;;8.90;99.90;;;6.98;100.00;99986.97;5051368;28;19933;-84
2022/02/18 02:26:31;;;;;;;;;;;8.90;99.90;;;7.05;100.00;99981.72;5053180;28;20388;-84
2022/02/18 02:28:59;;;;;;;;;;;8.90;99.90;;;7.08;100.00;99980.53;5052293;28;20023;-84
2022/02/18 02:31:27;;;;;;;;;;;8.90;99.90;;;7.10;100.00;99975.78;5041535;28;20686;-84
2022/02/18 02:33:55;;;;;;;;;;;8.90;99.90;;;7.13;100.00;99960.03;5034364;28;19932;-84
2022/02/18 02:36:24;;;;;;;;;;;8.90;99.90;;;7.10;100.00;99960.41;5059138;28;19925;-84
2022/02/18 02:38:51;;;;;;;;;;;8.90;99.90;;;7.11;100.00;99964.78;5053489;28;19967;-84
2022/02/18 02:41:20;;;;;;;;;;;8.90;99.90;;;7.08;100.00;99964.28;5043651;28;20345;-84
2022/02/18 02:43:47;;;;;;;;;;;8.90;99.90;;;7.09;100.00;99939.75;5033472;28;19928;-84
2022/02/18 02:46:14;;;;;;;;;;;9.00;99.90;;;7.10;100.00;99940.59;5070208;28;19924;-84
2022/02/18 02:48:42;;;;;;;;;;;9.00;99.90;;;7.16;100.00;99929.94;5052327;28;19951;-84
2022/02/18 02:51:20;;;;;;;;;;;9.00;99.90;;;7.17;100.00;99925.34;5052341;28;20007;-84
2022/02/18 02:53:48;;;;;;;;;;;9.00;99.90;;;7.21;100.00;99910.44;5037744;28;19960;-84
2022/02/18 02:56:16;;;;;;;;;;;9.00;99.90;;;7.24;100.00;99910.09;5050563;28;20009;-84
2022/02/18 02:58:45;;;;;;;;;;;9.00;99.90;;;7.29;100.00;99907.72;5052397;28;19929;-84
2022/02/18 03:01:14;;;;;;;;;;;9.00;99.90;;;7.31;100.00;99897.53;5041738;28;19929;-84
2022/02/18 03:03:45;;;;;;;;;;;9.00;99.90;;;7.19;100.00;99904.38;5052015;28;20586;-84
2022/02/18 03:06:12;;;;;;;;;;;9.00;99.90;;;7.22;100.00;99898.59;5069629;28;19974;-84
2022/02/18 03:08:39;;;;;;;;;;;9.00;99.90;;;7.26;100.00;99899.94;5052099;28;19947;-84
2022/02/18 03:11:16;;;;;;;;;;;9.00;99.90;;;7.27;100.00;99893.47;5050914;28;19932;-84
2022/02/18 03:14:20;;;;;;;;;;;9.00;99.90;;;7.28;100.00;99884.34;4979224;28;19930;-84
2022/02/18 03:17:07;;;;;;;;;;;9.00;99.90;;;7.27;100.00;99885.34;5029826;28;19925;-84
2022/02/18 03:19:34;;;;;;;;;;;9.00;99.90;;;7.32;100.00;99885.69;5044393;28;19939;-84
2022/02/18 03:22:05;;;;;;;;;;;9.00;99.90;;;7.28;100.00;99873.53;5046652;28;19931;-84
2022/02/18 03:24:33;;;;;;;;;;;9.00;99.90;;;7.29;100.00;99877.94;5032887;28;19940;-84
2022/02/18 03:27:00;;;;;;;;;;;9.00;99.90;;;7.34;100.00;99877.38;5032047;28;20380;-84
2022/02/18 03:29:32;;;;;;;;;;;9.00;99.90;;;7.34;100.00;99866.56;5046080;28;19924;-84
2022/02/18 03:32:13;;;;;;;;;;;8.90;99.90;;;7.33;100.00;99857.59;5051418;28;19928;-84
2022/02/18 03:34:40;;;;;;;;;;;8.90;99.90;;;7.35;100.00;99858.25;5052676;28;20019;-84
2022/02/18 03:37:08;;;;;;;;;;;8.90;99.90;;;7.37;100.00;99850.81;5035900;28;20428;-84
2022/02/18 03:39:35;;;;;;;;;;;9.00;99.90;;;7.39;100.00;99848.75;5031795;28;19932;-84
2022/02/18 03:42:04;;;;;;;;;;;9.10;99.90;;;7.32;100.00;99839.66;5032723;28;19928;-84
2022/02/18 03:44:35;;;;;;;;;;;9.00;99.90;;;7.31;100.00;99829.88;5048345;28;19934;-84
2022/02/18 03:47:04;;;;;;;;;;;9.00;99.90;;;7.32;100.00;99818.00;5044994;28;19934;-84
2022/02/18 03:49:32;;;;;;;;;;;9.00;99.90;;;7.33;100.00;99814.28;5032217;28;19995;-84
2022/02/18 03:52:00;;;;;;;;;;;9.00;99.90;;;7.43;100.00;99808.63;5048752;28;19924;-84
2022/02/18 03:54:28;;;;;;;;;;;9.00;99.90;;;7.48;100.00;99810.78;5044511;28;19966;-84
2022/02/18 03:56:55;;;;;;;;;;;9.00;99.90;;;7.46;100.00;99804.72;5031749;28;19967;-84
2022/02/18 03:59:25;;;;;;;;;;;9.00;99.90;;;7.41;100.00;99797.16;5032431;28;19932;-84
2022/02/18 04:01:55;;;;;;;;;;;9.00;99.90;;;7.49;100.00;99804.34;5035844;28;19929;-84
2022/02/18 04:04:22;;;;;;;;;;;9.00;99.90;;;7.52;100.00;99794.00;5040051;28;20371;-84
2022/02/18 04:06:55;;;;;;;;;;;9.00;99.90;;;7.51;100.00;99807.72;5050796;28;20470;-84
2022/02/18 04:09:45;;;;;;;;;;;9.00;99.90;;;7.49;100.00;99796.22;5051652;28;19966;-84
2022/02/18 04:12:18;;;;;;;;;;;9.00;99.90;;;7.47;100.00;99782.03;5063620;23;19935;-88
2022/02/18 04:14:47;;;;;;;;;;;9.10;99.90;;;7.39;100.00;99772.97;5040788;28;20468;-89
2022/02/18 04:17:21;;;;;;;;;;;9.10;99.90;;;7.45;100.00;99784.94;5032662;28;19929;-88
2022/02/18 04:19:54;;;;;;;;;;;9.10;99.90;;;7.42;100.00;99771.75;5050788;28;19974;-87
2022/02/18 04:22:25;;;;;;;;;;;9.10;99.90;;;7.46;100.00;99774.94;5049961;28;20031;-87
2022/02/18 04:24:54;;;;;;;;;;;9.10;99.90;;;7.47;100.00;99757.69;5047361;28;19929;-87
2022/02/18 04:27:21;;;;;;;;;;;9.10;99.90;;;7.46;100.00;99764.94;5049634;28;19925;-87
2022/02/18 04:29:48;;;;;;;;;;;9.10;99.90;;;7.48;100.00;99759.34;5062803;28;19928;-88
2022/02/18 04:32:16;;;;;;;;;;;9.10;99.90;;;7.52;100.00;99755.22;5065267;28;19925;-88
2022/02/18 04:34:44;;;;;;;;;;;9.10;99.90;;;7.54;100.00;99751.34;5031933;28;20023;-88
2022/02/18 04:37:11;;;;;;;;;;;9.10;99.90;;;7.55;100.00;99738.63;5058377;28;19960;-88
2022/02/18 04:39:38;;;;;;;;;;;9.10;99.90;;;7.54;100.00;99732.38;5068363;28;19963;-88
2022/02/18 04:42:06;;;;;;;;;;;9.10;99.90;;;7.52;100.00;99714.63;5053268;28;19931;-88
2022/02/18 04:44:33;;;;;;;;;;;9.10;99.90;;;7.58;100.00;99705.78;5049422;28;20482;-88
2022/02/18 04:47:00;;;;;;;;;;;9.10;99.90;;;7.54;100.00;99699.03;5071295;28;20388;-88
2022/02/18 04:49:27;;;;;;;;;;;9.10;99.90;;;7.54;100.00;99699.03;5050485;28;19978;-87
2022/02/18 04:51:59;;;;;;;;;;;9.10;99.90;;;7.53;100.00;99686.53;5060896;28;19928;-88
2022/02/18 04:54:26;;;;;;;;;;;9.20;99.90;;;7.50;100.00;99673.34;5056940;28;19925;-87
2022/02/18 04:56:53;;;;;;;;;;;9.20;99.90;;;7.54;100.00;99669.25;5066948;28;19963;-88
2022/02/18 04:59:23;;;;;;;;;;;9.20;99.90;;;7.57;100.00;99647.22;5068517;28;19972;-88
2022/02/18 05:01:50;;;;;;;;;;;9.20;99.90;;;7.58;100.00;99648.91;5053756;28;19928;-89
2022/02/18 05:04:17;;;;;;;;;;;9.20;99.90;;;7.63;100.00;99650.03;5067920;28;20014;-88
2022/02/18 05:06:44;;;;;;;;;;;9.20;99.90;;;7.61;100.00;99649.38;5048861;28;19983;-89
2022/02/18 05:09:13;;;;;;;;;;;9.20;99.90;;;7.66;100.00;99635.28;5053094;28;19924;-88
2022/02/18 05:11:40;;;;;;;;;;;9.20;99.90;;;7.68;100.00;99641.34;5067498;28;19982;-88
2022/02/18 05:14:07;;;;;;;;;;;9.20;99.90;;;7.62;100.00;99631.28;5062786;28;19924;-88
2022/02/18 05:16:34;;;;;;;;;;;9.20;99.90;;;7.68;100.00;99624.25;5053060;28;19959;-87
2022/02/18 05:19:06;;;;;;;;;;;9.20;99.90;;;7.70;100.00;99609.50;5044533;28;19936;-88
2022/02/18 05:21:33;;;;;;;;;;;9.20;99.90;;;7.71;100.00;99613.03;5071931;28;19928;-88
2022/02/18 05:24:00;;;;;;;;;;;9.30;99.90;;;7.74;100.00;99594.53;5072598;28;20478;-88
2022/02/18 05:26:28;;;;;;;;;;;9.20;99.90;;;7.77;100.00;99585.22;5074283;28;19924;-90
2022/02/18 05:28:58;;;;;;;;;;;9.20;99.90;;;7.75;100.00;99588.13;5055727;28;20028;-94
2022/02/18 05:31:25;;;;;;;;;;;9.30;99.90;;;7.72;100.00;99577.66;5045599;28;19960;-90
2022/02/18 05:33:52;;;;;;;;;;;9.30;99.90;;;7.71;100.00;99565.16;5035150;28;19968;-91
2022/02/18 05:36:22;;;;;;;;;;;9.30;99.90;;;7.74;99.97;99537.66;5060577;28;19925;-91
2022/02/18 05:38:49;;;;;;;;;;;9.30;99.90;;;7.80;100.00;99536.06;5054514;28;20336;-93
2022/02/18 05:41:17;;;;;;;;;;;9.30;99.90;;;7.82;100.00;99528.59;5035840;28;20407;-90
2022/02/18 05:43:46;;;;;;;;;;;9.30;99.90;;;7.85;99.76;99517.38;5035062;28;19935;-90
2022/02/18 05:46:13;;;;;;;;;;;9.30;99.90;;;7.88;99.52;99508.03;5052638;28;19925;-91
2022/02/18 05:48:40;;;;;;;;;;;9.30;99.90;;;7.90;98.87;99503.25;5041904;28;19968;-94
2022/02/18 06:07:38;;;;;;;;;;;9.30;99.90;;;7.85;97.10;99462.38;5062932;28;19928;-92
2022/02/18 06:15:36;;;;;;;;;;;9.40;99.90;;;7.83;97.14;99454.44;5036195;28;19929;-89
2022/02/18 06:18:03;;;;;;;;;;;9.40;99.90;;;7.89;97.30;99464.50;5032474;28;19931;-88
2022/02/18 06:20:30;;;;;;;;;;;9.40;99.90;;;7.87;97.86;99454.91;5031307;28;19933;-88
2022/02/18 06:22:57;;;;;;;;;;;9.40;99.90;;;7.86;98.52;99450.50;5029194;28;19979;-90
2022/02/18 06:25:27;;;;;;;;;;;9.40;99.90;;;7.78;99.63;99443.34;5030921;28;20032;-88
2022/02/18 06:28:04;;;;;;;;;;;9.40;99.90;;;7.81;100.00;99434.84;5024985;28;20032;-90
2022/02/18 06:30:34;;;;;;;;;;;9.40;99.90;;;7.72;99.94;99420.56;5032141;28;19926;-88
2022/02/18 06:33:01;;;;;;;;;;;9.40;99.90;;;7.69;100.00;99412.84;5030258;28;20075;-92
2022/02/18 06:35:29;;;;;;;;;;;9.30;99.90;;;7.73;100.00;99397.03;5024742;28;20002;-90
2022/02/18 06:37:56;;;;;;;;;;;9.40;99.90;;;7.79;100.00;99394.41;5045575;28;19925;-91
2022/02/18 06:40:29;;;;;;;;;;;9.30;99.90;;;7.77;100.00;99396.47;5024092;28;20068;-90
2022/02/18 06:42:56;;;;;;;;;;;9.30;99.90;;;7.75;100.00;99374.16;5029888;28;19936;-92
2022/02/18 06:45:25;;;;;;;;;;;9.30;99.90;;;7.72;100.00;99368.28;5042314;28;19925;-90
2022/02/18 06:47:52;;;;;;;;;;;9.30;99.90;;;7.72;100.00;99358.28;5024543;28;19971;-90
2022/02/18 06:50:20;;;;;;;;;;;9.40;99.90;;;7.77;100.00;99355.84;5022160;28;20393;-91
2022/02/18 06:52:48;;;;;;;;;;;9.40;99.90;;;7.72;100.00;99343.91;5027540;28;20422;-92
2022/02/18 06:55:16;;;;;;;;;;;9.30;99.90;;;7.70;100.00;99329.72;5028645;28;20011;-91
2022/02/18 06:57:47;;;;;;;;;;;9.60;99.90;;;7.72;100.00;99325.78;5025184;28;19925;-90
2022/02/18 07:00:16;;;;;;;;;;;9.30;99.90;;;7.75;100.00;99317.28;5027603;28;19929;-91
2022/02/18 07:02:43;;;;;;;;;;;9.40;99.90;;;7.78;100.00;99319.59;5030763;28;20012;-92
2022/02/18 07:05:16;;;;;;;;;;;9.40;99.90;;;7.74;100.00;99307.47;5029962;28;19987;-92
2022/02/18 07:07:43;;;;;;;;;;;9.40;99.90;;;7.75;100.00;99306.44;5030382;28;19965;-91
2022/02/18 07:10:12;;;;;;;;;;;9.30;99.90;;;7.66;100.00;99285.97;5029251;28;19931;-91
2022/02/18 07:12:43;;;;;;;;;;;9.40;99.90;;;7.69;100.00;99280.16;5029393;28;20509;-90
2022/02/18 07:15:12;;;;;;;;;;;9.30;99.90;;;7.68;100.00;99277.66;5023797;28;20303;-92
2022/02/18 07:17:40;;;;;;;;;;;9.30;99.90;;;7.64;100.00;99258.25;5028944;28;19925;-92
2022/02/18 07:20:12;;;;;;;;;;;9.30;99.90;;;7.64;100.00;99261.78;5020504;28;20108;-90
2022/02/18 07:22:43;;;;;;;;;;;9.30;99.90;;;7.63;100.00;99249.28;5028081;28;19932;-90
2022/02/18 07:25:11;;;;;;;;;;;9.30;99.90;;;7.65;100.00;99235.53;5035247;28;19935;-91
2022/02/18 07:27:38;;;;;;;;;;;9.30;99.90;;;7.72;100.00;99239.13;5028779;28;19975;-92
2022/02/18 07:30:11;;;;;;;;;;;9.30;99.90;;;7.78;100.00;99235.63;5029721;28;20328;-90
2022/02/18 07:32:40;;;;;;;;;;;9.30;99.90;;;7.83;100.00;99232.34;5032180;28;20365;-90
2022/02/18 07:35:12;;;;;;;;;;;9.30;99.90;;;7.85;100.00;99224.03;5033051;28;20060;-89
2022/02/18 07:37:40;;;;;;;;;;;9.30;99.90;;;7.81;100.00;99205.44;5029040;28;19929;-89
2022/02/18 07:40:14;;;;;;;;;;;9.30;99.90;;;7.85;100.00;99184.22;5017477;28;20048;-89
2022/02/18 07:42:42;;;;;;;;;;;9.30;99.90;;;7.84;100.00;99179.81;5025716;28;20756;-91
2022/02/18 07:45:12;;;;;;;;;;;9.30;99.90;;;7.86;100.00;99177.75;5028869;28;19925;-90
2022/02/18 07:47:40;;;;;;;;;;;9.40;99.90;;;7.86;100.00;99158.78;5045338;28;20408;-90
2022/02/18 07:50:08;;;;;;;;;;;9.40;99.90;;;7.92;100.00;99154.44;5016990;28;20382;-90
2022/02/18 07:52:37;;;;;;;;;;;9.40;99.90;;;7.93;100.00;99143.41;5023444;28;19925;-90
2022/02/18 07:55:05;;;;;;;;;;;9.40;99.90;;;7.85;100.00;99142.75;5026611;28;20012;-90
2022/02/18 07:57:32;;;;;;;;;;;9.50;99.90;;;7.83;100.00;99130.25;5031781;28;19925;-91
2022/02/18 07:59:59;;;;;;;;;;;9.40;99.90;;;7.78;100.00;99127.28;5025020;28;19929;-92
2022/02/18 08:02:27;;;;;;;;;;;9.40;99.90;;;7.83;100.00;99119.41;5019881;28;19959;-90
2022/02/18 08:04:57;;;;;;;;;;;9.50;99.90;;;7.87;100.00;99110.91;5028601;28;19980;-90
2022/02/18 08:07:26;;;;;;;;;;;9.50;99.90;;;7.90;100.00;99092.38;5027915;28;19929;-90
2022/02/18 08:09:53;;;;;;;;;;;9.60;99.90;;;7.95;100.00;99095.28;5020810;28;20016;-92
2022/02/18 08:12:20;;;;;;;;;;;9.50;99.90;;;8.03;100.00;99094.25;5029763;28;19976;-91
2022/02/18 08:14:47;;;;;;;;;;;9.60;99.90;;;7.98;100.00;99085.94;5048151;28;20328;-91
2022/02/18 08:17:15;;;;;;;;;;;9.60;99.90;;;7.99;100.00;99090.28;5043169;28;19925;-92
2022/02/18 08:19:43;;;;;;;;;;;9.60;99.90;;;8.04;100.00;99082.41;5041800;28;19970;-90
2022/02/18 08:22:13;;;;;;;;;;;9.60;99.90;;;8.03;100.00;99092.41;5025574;28;19960;-92
2022/02/18 08:24:40;;;;;;;;;;;9.70;99.90;;;8.00;100.00;99075.72;5029788;28;19933;-91
2022/02/18 08:27:08;;;;;;;;;;;9.70;99.90;;;8.00;100.00;99064.88;5027033;28;19983;-90
2022/02/18 08:29:35;;;;;;;;;;;9.70;99.90;;;8.08;100.00;99067.41;5020996;28;19936;-91
2022/02/18 08:32:03;;;;;;;;;;;9.70;99.90;;;8.07;100.00;99051.34;5014182;28;20028;-92
2022/02/18 08:34:31;;;;;;;;;;;9.70;99.90;;;8.07;100.00;99038.63;5045172;28;19955;-93
2022/02/18 08:37:01;;;;;;;;;;;9.70;99.90;;;8.06;100.00;99042.41;5028377;28;19929;-91
2022/02/18 08:39:31;;;;;;;;;;;9.70;99.90;;;8.11;100.00;99039.91;5030163;28;19932;-91
2022/02/18 08:41:58;;;;;;;;;;;9.80;99.90;;;8.11;100.00;99036.34;5028293;28;19925;-92
2022/02/18 08:44:25;;;;;;;;;;;9.80;99.90;;;8.15;100.00;99034.91;5030586;28;19975;-92
2022/02/18 08:46:52;;;;;;;;;;;9.80;99.90;;;8.19;100.00;99020.75;5020740;28;20030;-91
2022/02/18 08:49:20;;;;;;;;;;;9.80;99.90;;;8.20;100.00;99022.41;5046845;28;19929;-90
2022/02/18 08:51:47;;;;;;;;;;;9.80;99.90;;;8.25;100.00;99010.13;5029351;28;19929;-90
2022/02/18 08:54:15;;;;;;;;;;;9.80;99.90;;;8.28;100.00;98996.16;5027899;28;19968;-91
2022/02/18 08:56:44;;;;;;;;;;;9.90;99.90;;;8.36;100.00;98987.81;5027502;28;19939;-89
2022/02/18 08:59:12;;;;;;;;;;;9.90;99.90;;;8.40;100.00;99000.75;5031242;28;19925;-89
2022/02/18 09:01:39;;;;;;;;;;;9.90;99.90;;;8.44;100.00;99000.38;5011802;28;19925;-89
2022/02/18 09:04:06;;;;;;;;;;;9.90;99.90;;;8.42;100.00;98992.44;5029298;28;19929;-89
2022/02/18 09:06:33;;;;;;;;;;;9.90;99.90;;;8.39;100.00;98979.25;5027732;28;20356;-89
2022/02/18 09:09:00;;;;;;;;;;;9.90;99.90;;;8.46;100.00;98985.56;5026289;28;19983;-89
2022/02/18 09:15:02;;;;;;;;;;;10.00;99.90;;;8.40;100.00;98957.38;5000789;28;20030;-94
2022/02/18 09:17:56;;;;;;;;;;;10.00;99.90;;;8.50;100.00;98948.03;5047670;28;19929;-92
2022/02/18 09:20:24;;;;;;;;;;;10.00;99.90;;;8.47;100.00;98938.41;5032934;28;19933;-91
2022/02/18 09:22:53;;;;;;;;;;;10.10;99.90;;;8.54;100.00;98941.94;5063892;28;19925;-91
2022/02/18 09:25:20;;;;;;;;;;;10.10;99.90;;;8.54;100.00;98933.00;5048974;28;19935;-92
2022/02/18 09:28:02;;;;;;;;;;;10.10;99.90;;;8.58;100.00;98929.63;5046132;28;19929;-95
2022/02/18 09:30:40;;;;;;;;;;;10.10;99.90;;;8.60;100.00;98903.19;5039681;28;19929;-90
2022/02/18 09:33:08;;;;;;;;;;;10.20;99.90;;;8.64;100.00;98906.25;5048479;28;19933;-92
2022/02/18 09:35:37;;;;;;;;;;;10.20;99.90;;;8.75;100.00;98915.63;5039286;28;19925;-92
2022/02/18 09:38:08;;;;;;;;;;;10.20;99.90;;;8.75;100.00;98916.47;5051436;28;19929;-90
2022/02/18 09:40:36;;;;;;;;;;;10.30;99.90;;;8.80;100.00;98905.81;5053051;28;20520;-90
2022/02/18 09:43:08;;;;;;;;;;;10.30;99.90;;;8.85;100.00;98894.31;5047555;28;19933;-94
2022/02/18 09:45:56;;;;;;;;;;;10.30;99.90;;;8.85;100.00;98885.34;5044306;28;19933;-94
2022/02/18 09:48:27;;;;;;;;;;;10.30;99.90;;;8.91;100.00;98887.22;5058362;28;19975;-94
2022/02/18 09:51:04;;;;;;;;;;;10.40;99.90;;;8.91;100.00;98881.78;5049202;28;19932;-94
2022/02/18 09:53:32;;;;;;;;;;;10.40;99.90;;;8.92;100.00;98873.44;5052126;28;19970;-94
2022/02/18 09:56:26;;;;;;;;;;;;;;;;;;;;;
2022/02/18 09:58:56;;;;;;;;;;;10.40;99.90;;;8.97;100.00;98846.50;5043101;28;19995;-93
2022/02/18 10:01:29;;;;;;;;;;;10.50;99.90;;;8.95;100.00;98845.88;5051449;28;19964;-92
2022/02/18 10:04:11;;;;;;;;;;;10.50;99.90;;;8.95;100.00;98824.19;5062842;28;20446;-92
2022/02/18 10:07:09;;;;;;;;;;;10.40;99.90;;;9.00;100.00;98832.50;5049765;28;19954;-94
2022/02/18 10:09:46;;;;;;;;;;;10.60;99.90;;;9.03;100.00;98822.28;5056356;28;19929;-93
2022/02/18 10:12:14;;;;;;;;;;;10.60;99.90;;;9.07;100.00;98821.63;5061459;22;19929;-82
2022/02/18 10:14:56;;;;;;;;;;;10.60;99.90;;;9.14;100.00;98822.41;5042068;28;19929;-82
2022/02/18 10:17:36;;;;;;;;;;;10.60;99.90;;;9.20;100.00;98818.81;5050755;28;19967;-82
2022/02/18 10:20:15;;;;;;;;;;;10.60;99.90;;;9.26;100.00;98800.84;5047743;28;19929;-82
2022/02/18 10:22:54;;;;;;;;;;;10.70;99.90;;;9.28;100.00;98803.34;5041005;28;20013;-82
2022/02/18 10:25:25;;;;;;;;;;;10.70;99.90;;;9.31;100.00;98817.31;5049878;28;19936;-82
2022/02/18 10:27:54;;;;;;;;;;;10.70;99.90;;;9.33;100.00;98806.25;5050000;28;19940;-82
2022/02/18 10:30:23;;;;;;;;;;;10.70;99.90;;;9.35;100.00;98801.41;5031640;28;19933;-83
2022/02/18 10:32:53;;;;;;;;;;;10.80;99.90;;;9.38;100.00;98809.94;5049227;28;19952;-82
2022/02/18 10:35:22;;;;;;;;;;;10.80;99.90;;;9.39;100.00;98787.16;5050872;28;19924;-82
2022/02/18 10:37:53;;;;;;;;;;;10.80;99.90;;;9.41;100.00;98778.81;5050946;28;19990;-81
2022/02/18 10:40:21;;;;;;;;;;;10.80;99.90;;;9.44;100.00;98778.34;5052749;28;19925;-82
2022/02/18 10:42:49;;;;;;;;;;;10.80;99.90;;;9.49;100.00;98769.56;5050031;28;19967;-82
2022/02/18 10:45:18;;;;;;;;;;;10.90;99.90;;;9.47;100.00;98761.63;5050310;28;20440;-82
2022/02/18 10:47:47;;;;;;;;;;;10.90;99.90;;;9.51;100.00;98756.59;5049390;28;20007;-81
2022/02/18 10:50:17;;;;;;;;;;;10.90;99.90;;;9.58;100.00;98757.38;5049263;28;19933;-81
2022/02/18 10:53:08;;;;;;;;;;;10.90;99.90;;;9.57;100.00;98761.13;5044236;28;20018;-81
2022/02/18 10:55:47;;;;;;;;;;;11.00;99.90;;;9.58;100.00;98751.94;5050633;28;19957;-81
2022/02/18 10:58:19;;;;;;;;;;;11.00;99.90;;;9.63;100.00;98746.66;5031332;28;19924;-81
2022/02/18 11:00:46;;;;;;;;;;;11.00;99.90;;;9.67;100.00;98739.75;5050439;28;20404;-81
2022/02/18 11:03:25;;;;;;;;;;;11.10;99.90;;;9.70;100.00;98738.47;5049927;28;19979;-81
2022/02/18 11:05:54;;;;;;;;;;;11.10;99.90;;;9.71;100.00;98738.25;5044832;28;20070;-82
2022/02/18 11:08:30;;;;;;;;;;;11.10;99.90;;;9.72;100.00;98731.75;5049847;28;19929;-82
2022/02/18 11:10:57;;;;;;;;;;;11.10;99.90;;;9.74;100.00;98718.78;5050148;28;20369;-82
2022/02/18 11:13:24;;;;;;;;;;;11.10;99.90;;;9.78;100.00;98706.41;5050257;28;19928;-82
2022/02/18 11:15:52;;;;;;;;;;;11.20;99.90;;;9.80;100.00;98706.19;5049685;28;19974;-82
2022/02/18 11:18:19;;;;;;;;;;;11.20;99.90;;;9.84;100.00;98696.53;5049866;28;20386;-82
2022/02/18 11:20:47;;;;;;;;;;;11.20;99.90;;;9.88;100.00;98686.03;5047639;28;19936;-82
2022/02/18 11:23:15;;;;;;;;;;;11.20;99.90;;;9.90;100.00;98681.22;5048277;28;19937;-82
2022/02/18 11:25:43;;;;;;;;;;;11.20;99.90;;;9.90;100.00;98663.03;5047223;28;20020;-82
2022/02/18 11:28:11;;;;;;;;;;;11.20;99.90;;;9.91;100.00;98655.72;5043628;28;19932;-83
2022/02/18 11:30:39;;;;;;;;;;;11.20;99.90;;;9.95;100.00;98654.19;5044586;28;19933;-83
2022/02/18 11:33:15;;;;;;;;;;;11.30;99.90;;;9.92;100.00;98639.19;5048225;28;19994;-80
2022/02/18 11:35:58;;;;;;;;;;;11.30;99.90;;;9.96;100.00;98634.97;5048129;28;20028;-82
2022/02/18 11:38:58;;;;;;;;;;;11.30;99.90;;;10.01;100.00;98614.41;5030396;28;19986;-82
2022/02/18 11:41:43;;;;;;;;;;;11.40;99.90;;;10.01;100.00;98595.38;5047909;28;19928;-82
2022/02/18 11:44:13;;;;;;;;;;;11.40;99.90;;;10.05;100.00;98599.31;5050282;28;19967;-82
2022/02/18 11:46:40;;;;;;;;;;;11.40;99.90;;;10.07;100.00;98591.75;5050115;28;20023;-83
2022/02/18 11:49:10;;;;;;;;;;;11.40;99.90;;;10.04;100.00;98581.34;5049730;28;20297;-83
2022/02/18 11:51:41;;;;;;;;;;;11.40;99.90;;;10.07;100.00;98579.03;5062054;28;19928;-83
2022/02/18 11:54:24;;;;;;;;;;;11.40;99.90;;;10.07;100.00;98565.44;5070365;28;19924;-83
2022/02/18 11:56:59;;;;;;;;;;;11.40;99.90;;;10.10;100.00;98559.50;5064746;28;19955;-83
2022/02/18 11:59:45;;;;;;;;;;;11.50;99.90;;;10.17;100.00;98554.00;5050287;28;19931;-83
2022/02/18 12:02:12;;;;;;;;;;;11.50;99.90;;;10.18;100.00;98552.94;5049354;28;19968;-83